createdAt,value
2019-06-10T00:00:50.683Z,3.500000
2019-06-10T00:03:21.166Z,3.200000
2019-06-10T00:05:51.835Z,3.200000
2019-06-10T00:08:22.271Z,3.600000
2019-06-10T00:10:52.655Z,3.600000
2019-06-10T00:13:22.945Z,3.700000
2019-06-10T00:15:53.244Z,3.700000
2019-06-10T00:21:03.281Z,7.800000
2019-06-10T00:23:34.420Z,2.600000
2019-06-10T00:26:07.554Z,2.600000
2019-06-10T00:28:40.543Z,3.100000
2019-06-10T00:31:11.456Z,3.100000
2019-06-10T00:33:41.951Z,3.600000
2019-06-10T00:36:13.509Z,3.600000
2019-06-10T00:38:44.100Z,5.600000
2019-06-10T00:41:14.414Z,5.600000
2019-06-10T00:43:44.778Z,4.400000
2019-06-10T00:46:15.095Z,4.400000
2019-06-10T00:48:45.353Z,5.100000
2019-06-10T00:51:15.720Z,5.100000
2019-06-10T00:53:46.024Z,2.700000
2019-06-10T00:56:16.427Z,2.700000
2019-06-10T00:58:46.689Z,2.700000
2019-06-10T01:01:17.170Z,2.700000
2019-06-10T01:03:47.652Z,1.900000
2019-06-10T01:06:18.111Z,1.900000
2019-06-10T01:08:48.396Z,2.900000
2019-06-10T01:11:23.695Z,2.900000
2019-06-10T01:13:57.233Z,5.000000
2019-06-10T01:16:27.499Z,5.000000
2019-06-10T01:18:57.895Z,4.600000
2019-06-10T01:21:28.231Z,4.600000
2019-06-10T01:23:58.495Z,4.400000
2019-06-10T01:26:31.034Z,4.400000
2019-06-10T01:29:01.498Z,2.800000
2019-06-10T01:31:31.921Z,2.800000
2019-06-10T01:34:02.354Z,4.700000
2019-06-10T01:36:32.731Z,4.700000
2019-06-10T01:39:03.243Z,6.200000
2019-06-10T01:41:33.482Z,6.200000
2019-06-10T01:44:03.840Z,4.400000
2019-06-10T01:46:34.124Z,4.400000
2019-06-10T01:49:04.403Z,4.300000
2019-06-10T01:51:34.675Z,4.300000
2019-06-10T01:54:04.964Z,3.800000
2019-06-10T01:56:35.349Z,3.800000
2019-06-10T01:59:05.725Z,5.600000
2019-06-10T02:01:36.003Z,5.600000
2019-06-10T02:04:06.284Z,4.800000
2019-06-10T02:06:41.827Z,4.800000
2019-06-10T02:09:15.048Z,2.500000
2019-06-10T02:11:45.887Z,2.500000
2019-06-10T02:14:18.173Z,4.400000
2019-06-10T02:16:50.679Z,4.400000
2019-06-10T02:19:22.960Z,4.000000
2019-06-10T02:21:53.307Z,4.000000
2019-06-10T02:24:23.724Z,3.400000
2019-06-10T02:26:54.044Z,3.400000
2019-06-10T02:29:24.345Z,3.200000
2019-06-10T02:31:59.676Z,3.200000
2019-06-10T02:34:33.087Z,4.200000
2019-06-10T02:37:06.968Z,4.200000
2019-06-10T02:39:38.909Z,4.100000
2019-06-10T02:42:09.601Z,4.100000
2019-06-10T02:44:39.955Z,2.600000
2019-06-10T02:47:13.503Z,2.600000
2019-06-10T02:49:52.695Z,2.600000
2019-06-10T02:52:32.179Z,2.600000
2019-06-10T02:55:07.561Z,4.800000
2019-06-10T02:57:40.207Z,4.800000
2019-06-10T03:00:19.747Z,3.300000
2019-06-10T03:02:53.742Z,3.600000
2019-06-10T03:05:29.902Z,3.600000
2019-06-10T03:08:04.618Z,3.600000
2019-06-10T03:10:37.212Z,3.600000
2019-06-10T03:13:07.810Z,5.100000
2019-06-10T03:15:38.166Z,5.100000
2019-06-10T03:18:08.626Z,4.100000
2019-06-10T03:20:38.984Z,4.100000
2019-06-10T03:23:09.337Z,2.500000
2019-06-10T03:25:42.159Z,2.500000
2019-06-10T03:28:12.634Z,5.700000
2019-06-10T03:30:53.325Z,5.700000
2019-06-10T03:33:34.535Z,6.100000
2019-06-10T03:36:12.403Z,6.100000
2019-06-10T03:38:43.365Z,4.100000
2019-06-10T03:41:13.887Z,4.100000
2019-06-10T03:43:44.252Z,4.500000
2019-06-10T03:46:14.642Z,4.500000
2019-06-10T03:48:44.992Z,4.800000
2019-06-10T03:51:15.487Z,4.800000
2019-06-10T03:53:45.749Z,5.000000
2019-06-10T03:56:17.159Z,5.000000
2019-06-10T03:58:47.576Z,2.900000
2019-06-10T04:01:19.367Z,2.900000
2019-06-10T04:03:49.730Z,2.800000
2019-06-10T04:06:19.990Z,2.800000
2019-06-10T04:08:52.251Z,4.000000
2019-06-10T04:11:25.511Z,4.000000
2019-06-10T04:13:56.224Z,4.900000
2019-06-10T04:16:27.172Z,4.900000
2019-06-10T04:18:58.574Z,4.000000
2019-06-10T04:21:34.037Z,4.000000
2019-06-10T04:24:09.413Z,4.600000
2019-06-10T04:26:39.717Z,4.600000
2019-06-10T04:29:10.100Z,1.800000
2019-06-10T04:31:42.492Z,1.800000
2019-06-10T04:34:13.009Z,3.800000
2019-06-10T04:36:43.374Z,3.800000
2019-06-10T04:39:13.690Z,3.900000
2019-06-10T04:41:44.056Z,3.900000
2019-06-10T04:44:14.450Z,3.800000
2019-06-10T04:46:44.774Z,3.800000
2019-06-10T04:49:15.024Z,2.700000
2019-06-10T04:51:45.393Z,2.700000
2019-06-10T04:54:16.139Z,2.700000
2019-06-10T04:56:46.332Z,2.700000
2019-06-10T04:59:16.732Z,2.100000
2019-06-10T05:01:47.175Z,2.100000
2019-06-10T05:04:18.891Z,3.600000
2019-06-10T05:06:49.292Z,3.600000
2019-06-10T05:09:19.553Z,3.900000
2019-06-10T05:11:52.110Z,3.900000
2019-06-10T05:14:25.289Z,5.400000
2019-06-10T05:16:55.996Z,5.400000
2019-06-10T05:19:27.511Z,3.900000
2019-06-10T05:21:58.350Z,3.900000
2019-06-10T05:24:30.130Z,5.700000
2019-06-10T05:27:03.793Z,5.700000
2019-06-10T05:29:34.273Z,2.600000
2019-06-10T05:32:04.721Z,2.600000
2019-06-10T05:34:35.107Z,3.000000
2019-06-10T05:37:05.401Z,3.000000
2019-06-10T05:39:35.787Z,3.200000
2019-06-10T05:42:06.242Z,3.200000
2019-06-10T05:44:36.661Z,3.600000
2019-06-10T05:47:06.940Z,3.600000
2019-06-10T05:49:37.333Z,4.700000
2019-06-10T05:52:07.710Z,4.700000
2019-06-10T05:54:38.002Z,5.000000
2019-06-10T05:57:08.454Z,5.000000
2019-06-10T05:59:38.795Z,5.000000
2019-06-10T06:02:09.087Z,5.000000
2019-06-10T06:04:39.467Z,4.200000
2019-06-10T06:07:09.853Z,4.200000
2019-06-10T06:09:42.565Z,3.800000
2019-06-10T06:12:14.275Z,3.800000
2019-06-10T06:14:44.719Z,5.500000
2019-06-10T06:17:16.805Z,6.400000
2019-06-10T06:19:47.244Z,6.400000
2019-06-10T06:22:17.684Z,4.100000
2019-06-10T06:24:48.045Z,4.100000
2019-06-10T06:27:18.310Z,4.600000
2019-06-10T06:29:48.589Z,4.600000
2019-06-10T06:32:18.770Z,4.400000
2019-06-10T06:34:49.082Z,4.400000
2019-06-10T06:37:19.378Z,4.000000
2019-06-10T06:39:52.179Z,4.000000
2019-06-10T06:42:23.018Z,2.900000
2019-06-10T06:44:53.466Z,2.900000
2019-06-10T06:47:23.989Z,4.400000
2019-06-10T06:49:54.334Z,4.400000
2019-06-10T06:52:46.462Z,3.600000
2019-06-10T06:55:18.607Z,3.600000
2019-06-10T06:57:48.930Z,3.500000
2019-06-10T07:00:38.164Z,3.500000
2019-06-10T07:03:19.253Z,4.300000
2019-06-10T07:05:49.586Z,4.300000
2019-06-10T07:08:19.954Z,2.200000
2019-06-10T07:10:52.244Z,2.200000
2019-06-10T07:13:22.603Z,2.400000
2019-06-10T07:15:53.561Z,2.400000
2019-06-10T07:18:23.917Z,2.700000
2019-06-10T07:20:54.320Z,2.700000
2019-06-10T07:23:24.727Z,2.800000
2019-06-10T07:25:54.979Z,2.800000
2019-06-10T07:28:25.364Z,1.300000
2019-06-10T07:30:55.802Z,1.300000
2019-06-10T07:33:26.172Z,3.500000
2019-06-10T07:35:56.752Z,3.500000
2019-06-10T07:38:27.124Z,2.000000
2019-06-10T07:40:57.509Z,2.000000
2019-06-10T07:43:27.894Z,2.400000
2019-06-10T07:45:58.275Z,2.400000
2019-06-10T07:48:28.661Z,2.500000
2019-06-10T07:50:59.041Z,2.500000
2019-06-10T07:53:29.322Z,4.300000
2019-06-10T07:55:59.737Z,4.300000
2019-06-10T07:58:32.586Z,3.000000
2019-06-10T08:01:05.107Z,3.000000
2019-06-10T08:03:36.612Z,2.300000
2019-06-10T08:06:08.236Z,2.300000
2019-06-10T08:08:38.859Z,3.300000
2019-06-10T08:11:09.221Z,3.300000
2019-06-10T08:13:39.532Z,3.300000
2019-06-10T08:16:09.842Z,3.300000
2019-06-10T08:19:07.778Z,3.300000
2019-06-10T08:21:50.234Z,3.300000
2019-06-10T08:24:25.529Z,3.200000
2019-06-10T08:26:55.826Z,3.200000
2019-06-10T08:29:26.224Z,4.600000
2019-06-10T08:31:56.569Z,4.600000
2019-06-10T08:34:26.860Z,3.600000
2019-06-10T08:36:57.247Z,3.600000
2019-06-10T08:39:27.766Z,3.300000
2019-06-10T08:41:58.074Z,3.300000
2019-06-10T08:44:28.580Z,2.400000
2019-06-10T08:46:58.909Z,2.400000
2019-06-10T08:49:29.249Z,2.200000
2019-06-10T08:52:02.497Z,2.200000
2019-06-10T08:54:33.151Z,1.300000
2019-06-10T08:57:04.568Z,1.300000
2019-06-10T08:59:35.051Z,2.700000
2019-06-10T09:02:05.501Z,2.700000
2019-06-10T09:04:35.972Z,2.000000
2019-06-10T09:07:06.384Z,2.000000
2019-06-10T09:09:38.788Z,3.500000
2019-06-10T09:12:27.750Z,3.500000
2019-06-10T09:15:03.163Z,2.300000
2019-06-10T09:17:34.095Z,2.700000
2019-06-10T09:20:04.457Z,2.700000
2019-06-10T09:22:34.880Z,2.500000
2019-06-10T09:25:05.305Z,2.500000
2019-06-10T09:27:35.713Z,1.900000
2019-06-10T09:30:06.151Z,1.900000
2019-06-10T09:32:36.373Z,2.700000
2019-06-10T09:35:06.699Z,2.700000
2019-06-10T09:37:37.027Z,2.200000
2019-06-10T09:40:07.342Z,2.200000
2019-06-10T09:42:37.660Z,3.000000
2019-06-10T09:45:08.062Z,3.000000
2019-06-10T09:47:38.396Z,2.700000
2019-06-10T09:50:08.740Z,2.700000
2019-06-10T09:52:43.019Z,3.700000
2019-06-10T09:55:16.426Z,3.700000
2019-06-10T09:57:49.093Z,1.600000
2019-06-10T10:00:23.354Z,1.600000
2019-06-10T10:02:56.226Z,3.700000
2019-06-10T10:05:26.596Z,3.700000
2019-06-10T10:07:57.466Z,2.300000
2019-06-10T10:10:28.046Z,2.300000
2019-06-10T10:12:58.469Z,2.000000
2019-06-10T10:15:31.612Z,2.000000
2019-06-10T10:18:04.661Z,2.400000
2019-06-10T10:20:43.074Z,2.400000
2019-06-10T10:23:15.537Z,2.100000
2019-06-10T10:25:47.780Z,2.100000
2019-06-10T10:28:18.509Z,2.100000
2019-06-10T10:30:50.588Z,2.100000
2019-06-10T10:33:29.751Z,2.600000
2019-06-10T10:36:02.858Z,2.600000
2019-06-10T10:38:34.922Z,2.700000
2019-06-10T10:41:05.422Z,2.700000
2019-06-10T10:43:37.735Z,2.400000
2019-06-10T10:46:09.292Z,2.400000
2019-06-10T10:48:39.741Z,2.400000
2019-06-10T10:51:12.700Z,2.400000
2019-06-10T10:53:48.404Z,3.300000
2019-06-10T10:56:22.452Z,3.300000
2019-06-10T10:58:55.900Z,3.500000
2019-06-10T11:01:28.655Z,3.500000
2019-06-10T11:03:59.406Z,3.100000
2019-06-10T11:06:32.146Z,3.100000
2019-06-10T11:09:02.682Z,3.100000
2019-06-10T11:11:33.381Z,3.100000
2019-06-10T11:14:03.788Z,4.900000
2019-06-10T11:16:34.198Z,4.900000
2019-06-10T11:19:04.566Z,3.400000
2019-06-10T11:21:34.975Z,3.400000
2019-06-10T11:24:05.288Z,3.500000
2019-06-10T11:26:35.592Z,3.500000
2019-06-10T11:29:05.996Z,4.000000
2019-06-10T11:31:36.419Z,4.000000
2019-06-10T11:34:06.833Z,4.900000
2019-06-10T11:36:37.137Z,4.900000
2019-06-10T11:39:07.343Z,7.200000
2019-06-10T11:41:37.736Z,7.200000
2019-06-10T11:44:08.057Z,3.900000
2019-06-10T11:46:38.420Z,3.900000
2019-06-10T11:49:08.804Z,5.600000
2019-06-10T11:51:39.107Z,5.600000
2019-06-10T11:54:09.566Z,4.400000
2019-06-10T11:56:42.030Z,4.400000
2019-06-10T11:59:13.363Z,5.300000
2019-06-10T12:01:43.919Z,5.300000
2019-06-10T12:04:14.215Z,0.200000
2019-06-10T12:06:44.692Z,0.200000
2019-06-10T12:09:15.066Z,0.100000
2019-06-10T12:11:45.406Z,0.100000
2019-06-10T12:14:15.876Z,0.300000
2019-06-10T12:17:17.594Z,0.300000
2019-06-10T12:20:02.998Z,0.000000
2019-06-10T12:22:33.825Z,0.000000
2019-06-10T12:25:30.393Z,0.000000
2019-06-10T12:28:06.600Z,0.100000
2019-06-10T12:30:37.597Z,0.100000
2019-06-10T12:33:07.843Z,0.000000
2019-06-10T12:35:38.297Z,0.000000
2019-06-10T12:38:08.660Z,3.700000
2019-06-10T12:40:38.890Z,3.700000
2019-06-10T12:43:09.228Z,0.000000
2019-06-10T12:45:39.517Z,0.000000
2019-06-10T12:48:09.995Z,0.000000
2019-06-10T12:50:42.861Z,0.000000
2019-06-10T12:53:13.380Z,0.000000
2019-06-10T12:55:46.908Z,0.000000
2019-06-10T12:58:17.542Z,0.000000
2019-06-10T13:00:47.748Z,0.000000
2019-06-10T13:03:18.067Z,0.100000
2019-06-10T13:05:48.638Z,0.100000
2019-06-10T13:08:20.607Z,0.000000
2019-06-10T13:10:54.124Z,0.000000
2019-06-10T13:13:24.468Z,0.400000
2019-06-10T13:15:56.317Z,0.400000
2019-06-10T13:18:26.783Z,0.000000
2019-06-10T13:21:00.786Z,0.000000
2019-06-10T13:23:36.140Z,0.000000
2019-06-10T13:26:10.846Z,0.000000
2019-06-10T13:28:45.690Z,0.400000
2019-06-10T13:31:16.147Z,0.400000
2019-06-10T13:33:46.639Z,0.000000
2019-06-10T13:36:17.140Z,0.000000
2019-06-10T13:38:47.595Z,0.100000
2019-06-10T13:41:18.006Z,0.100000
2019-06-10T13:43:48.350Z,0.000000
2019-06-10T13:46:18.740Z,0.000000
2019-06-10T13:48:48.956Z,0.200000
2019-06-10T13:51:19.339Z,0.200000
2019-06-10T13:53:49.742Z,0.000000
2019-06-10T13:58:56.124Z,0.000000
2019-06-10T14:01:26.519Z,0.000000
2019-06-10T14:03:56.906Z,0.000000
2019-06-10T14:06:39.595Z,0.000000
2019-06-10T14:09:16.849Z,0.100000
2019-06-10T14:11:47.300Z,0.100000
2019-06-10T14:14:18.283Z,0.000000
2019-06-10T14:16:48.866Z,0.000000
2019-06-10T14:19:19.225Z,0.000000
2019-06-10T14:21:49.574Z,0.000000
2019-06-10T14:24:22.519Z,0.000000
2019-06-10T14:26:53.293Z,0.000000
2019-06-10T14:29:23.831Z,0.000000
2019-06-10T14:31:54.219Z,0.000000
2019-06-10T14:34:24.577Z,2.500000
2019-06-10T14:36:54.948Z,2.500000
2019-06-10T14:39:25.203Z,5.400000
2019-06-10T14:41:55.544Z,5.400000
2019-06-10T14:44:25.796Z,3.700000
2019-06-10T14:46:56.154Z,3.700000
2019-06-10T14:49:26.507Z,3.800000
2019-06-10T14:51:56.904Z,3.800000
2019-06-10T14:54:27.238Z,5.000000
2019-06-10T14:56:57.624Z,5.000000
2019-06-10T14:59:27.985Z,4.200000
2019-06-10T15:01:58.463Z,4.200000
2019-06-10T15:04:28.705Z,2.900000
2019-06-10T15:06:59.058Z,2.900000
2019-06-10T15:09:29.425Z,4.700000
2019-06-10T15:11:59.936Z,4.700000
2019-06-10T15:14:32.291Z,3.800000
2019-06-10T15:17:02.998Z,3.800000
2019-06-10T15:19:33.387Z,4.100000
2019-06-10T15:22:03.752Z,4.100000
2019-06-10T15:24:34.122Z,3.300000
2019-06-10T15:27:13.084Z,3.300000
2019-06-10T15:29:49.512Z,3.000000
2019-06-10T15:32:33.280Z,3.500000
2019-06-10T15:35:04.879Z,3.500000
2019-06-10T15:37:35.291Z,5.600000
2019-06-10T15:40:05.646Z,5.600000
2019-06-10T15:42:36.097Z,3.600000
2019-06-10T15:45:06.531Z,3.600000
2019-06-10T15:47:36.882Z,3.700000
2019-06-10T15:50:07.281Z,3.700000
2019-06-10T15:52:37.694Z,6.100000
2019-06-10T15:55:08.013Z,6.100000
2019-06-10T15:57:42.718Z,5.700000
2019-06-10T16:00:21.199Z,5.700000
2019-06-10T16:02:52.557Z,7.300000
2019-06-10T16:05:25.155Z,7.300000
2019-06-10T16:07:55.766Z,7.100000
2019-06-10T16:10:27.762Z,7.100000
2019-06-10T16:12:58.460Z,4.000000
2019-06-10T16:15:28.961Z,4.000000
2019-06-10T16:17:59.344Z,7.700000
2019-06-10T16:20:32.193Z,7.700000
2019-06-10T16:23:07.962Z,3.800000
2019-06-10T16:25:38.234Z,3.800000
2019-06-10T16:28:08.623Z,6.100000
2019-06-10T16:30:39.026Z,6.100000
2019-06-10T16:33:09.296Z,5.900000
2019-06-10T16:35:39.568Z,5.900000
2019-06-10T16:38:10.054Z,3.500000
2019-06-10T16:40:43.178Z,3.500000
2019-06-10T16:43:13.667Z,8.000000
2019-06-10T16:45:44.000Z,8.000000
2019-06-10T16:48:14.360Z,3.700000
2019-06-10T16:50:47.103Z,3.700000
2019-06-10T16:53:17.991Z,4.600000
2019-06-10T16:55:48.315Z,4.600000
2019-06-10T16:58:20.385Z,3.900000
2019-06-10T17:00:51.541Z,3.900000
2019-06-10T17:03:25.096Z,4.500000
2019-06-10T17:05:57.249Z,4.500000
2019-06-10T17:08:28.431Z,11.900000
2019-06-10T17:10:58.951Z,11.900000
2019-06-10T17:13:30.289Z,6.300000
2019-06-10T17:16:03.181Z,6.300000
2019-06-10T17:18:33.949Z,5.000000
2019-06-10T17:21:04.378Z,5.000000
2019-06-10T17:23:36.619Z,3.600000
2019-06-10T17:26:07.231Z,3.600000
2019-06-10T17:28:37.558Z,6.400000
2019-06-10T17:31:07.914Z,6.400000
2019-06-10T17:33:38.331Z,4.700000
2019-06-10T17:36:08.765Z,4.700000
2019-06-10T17:38:39.199Z,5.000000
2019-06-10T17:41:09.502Z,5.000000
2019-06-10T17:43:39.833Z,3.700000
2019-06-10T17:46:12.320Z,3.700000
2019-06-10T17:48:43.198Z,4.600000
2019-06-10T17:51:13.625Z,4.600000
2019-06-10T17:53:43.951Z,10.300000
2019-06-10T17:56:14.264Z,10.300000
2019-06-10T17:58:53.727Z,5.400000
2019-06-10T18:01:29.093Z,5.400000
2019-06-10T18:03:59.508Z,6.100000
2019-06-10T18:06:29.957Z,6.100000
2019-06-10T18:09:00.284Z,4.600000
2019-06-10T18:11:34.180Z,4.600000
2019-06-10T18:14:06.094Z,5.300000
2019-06-10T18:16:36.829Z,5.300000
2019-06-10T18:19:07.225Z,11.100000
2019-06-10T18:21:37.557Z,11.100000
2019-06-10T18:24:08.646Z,9.600000
2019-06-10T18:26:39.161Z,9.600000
2019-06-10T18:29:10.462Z,5.300000
2019-06-10T18:31:43.087Z,5.300000
2019-06-10T18:34:18.633Z,6.000000
2019-06-10T18:36:53.987Z,6.000000
2019-06-10T18:39:24.410Z,7.700000
2019-06-10T18:41:54.717Z,5.200000
2019-06-10T18:44:26.574Z,5.200000
2019-06-10T18:46:58.208Z,4.600000
2019-06-10T18:49:28.576Z,4.600000
2019-06-10T18:51:59.082Z,4.600000
2019-06-10T18:54:29.601Z,4.600000
2019-06-10T18:56:59.957Z,4.200000
2019-06-10T18:59:33.130Z,4.200000
2019-06-10T19:02:06.361Z,7.400000
2019-06-10T19:04:38.372Z,7.400000
2019-06-10T19:07:10.348Z,6.100000
2019-06-10T19:09:47.001Z,6.100000
2019-06-10T19:12:18.373Z,5.300000
2019-06-10T19:14:48.774Z,5.300000
2019-06-10T19:17:19.111Z,7.100000
2019-06-10T19:19:49.607Z,7.100000
2019-06-10T19:22:22.395Z,9.600000
2019-06-10T19:24:53.087Z,9.600000
2019-06-10T19:27:23.964Z,8.700000
2019-06-10T19:29:54.825Z,8.700000
2019-06-10T19:32:25.340Z,6.100000
2019-06-10T19:34:55.794Z,6.100000
2019-06-10T19:37:26.180Z,9.300000
2019-06-10T19:39:56.541Z,9.300000
2019-06-10T19:42:26.913Z,7.100000
2019-06-10T19:44:57.252Z,7.100000
2019-06-10T19:47:27.593Z,3.600000
2019-06-10T19:49:57.874Z,3.600000
2019-06-10T19:52:28.226Z,5.700000
2019-06-10T19:55:02.662Z,5.700000
2019-06-10T19:57:34.261Z,6.300000
2019-06-10T20:00:11.866Z,6.300000
2019-06-10T20:02:46.537Z,8.200000
2019-06-10T20:05:17.229Z,8.200000
2019-06-10T20:07:50.059Z,10.700000
2019-06-10T20:10:22.973Z,10.700000
2019-06-10T20:12:53.796Z,6.300000
2019-06-10T20:15:24.263Z,6.300000
2019-06-10T20:17:54.607Z,9.700000
2019-06-10T20:20:24.849Z,9.700000
2019-06-10T20:22:57.552Z,4.100000
2019-06-10T20:25:28.089Z,4.100000
2019-06-10T20:27:58.516Z,5.200000
2019-06-10T20:30:29.267Z,5.200000
2019-06-10T20:33:00.600Z,9.300000
2019-06-10T20:35:33.372Z,9.300000
2019-06-10T20:38:05.095Z,5.900000
2019-06-10T20:40:35.761Z,5.900000
2019-06-10T20:43:06.115Z,5.500000
2019-06-10T20:45:37.643Z,5.500000
2019-06-10T20:48:08.180Z,5.200000
2019-06-10T20:50:39.073Z,5.200000
2019-06-10T20:53:18.297Z,0.000000
2019-06-10T20:55:54.463Z,0.000000
2019-06-10T20:58:27.652Z,0.100000
2019-06-10T21:00:58.005Z,0.100000
2019-06-10T21:03:28.383Z,0.000000
2019-06-10T21:05:58.811Z,0.000000
2019-06-10T21:08:29.289Z,0.100000
2019-06-10T21:10:59.592Z,0.100000
2019-06-10T21:13:32.963Z,0.100000
2019-06-10T21:16:04.069Z,0.100000
2019-06-10T21:18:34.583Z,0.100000
2019-06-10T21:21:04.867Z,0.100000
2019-06-10T21:23:35.313Z,0.000000
2019-06-10T21:26:05.640Z,0.000000
2019-06-10T21:28:35.980Z,0.100000
2019-06-10T21:31:06.362Z,0.100000
2019-06-10T21:33:36.776Z,0.100000
2019-06-10T21:36:12.456Z,0.100000
2019-06-10T21:38:44.923Z,0.000000
2019-06-10T21:41:17.999Z,0.000000
2019-06-10T21:43:51.731Z,0.100000
2019-06-10T21:46:27.872Z,0.200000
2019-06-10T21:48:58.222Z,0.200000
2019-06-10T21:51:31.522Z,0.100000
2019-06-10T21:54:04.476Z,0.100000
2019-06-10T21:56:34.833Z,0.100000
2019-06-10T21:59:05.192Z,0.100000
2019-06-10T22:01:35.535Z,0.000000
2019-06-10T22:04:05.878Z,0.000000
2019-06-10T22:06:36.235Z,0.100000
2019-06-10T22:09:06.571Z,0.100000
2019-06-10T22:11:36.817Z,0.200000
2019-06-10T22:14:07.246Z,0.200000
2019-06-10T22:16:37.703Z,0.100000
2019-06-10T22:19:08.045Z,0.100000
2019-06-10T22:21:44.560Z,0.000000
2019-06-10T22:24:19.974Z,0.000000
2019-06-10T22:26:51.001Z,0.100000
2019-06-10T22:29:23.039Z,0.100000
2019-06-10T22:31:55.306Z,0.000000
2019-06-10T22:34:27.074Z,0.000000
2019-06-10T22:36:57.616Z,0.100000
2019-06-10T22:39:28.160Z,0.100000
2019-06-10T22:41:59.690Z,0.600000
2019-06-10T22:44:30.050Z,0.600000
2019-06-10T22:47:02.692Z,0.100000
2019-06-10T22:49:33.233Z,0.100000
2019-06-10T22:52:03.553Z,0.000000
2019-06-10T22:54:33.786Z,0.000000
2019-06-10T22:57:04.130Z,0.600000
2019-06-10T22:59:34.442Z,0.600000
2019-06-10T23:02:04.778Z,0.100000
2019-06-10T23:04:40.008Z,0.100000
2019-06-10T23:07:13.072Z,0.000000
2019-06-10T23:09:43.800Z,0.000000
2019-06-10T23:12:14.085Z,0.100000
2019-06-10T23:14:44.413Z,0.100000
2019-06-10T23:17:14.752Z,0.000000
2019-06-10T23:19:45.066Z,0.000000
2019-06-10T23:22:15.487Z,0.200000
2019-06-10T23:24:45.815Z,0.200000
2019-06-10T23:27:16.173Z,0.100000
2019-06-10T23:29:46.539Z,0.100000
2019-06-10T23:32:16.865Z,0.000000
2019-06-10T23:34:47.287Z,0.000000
2019-06-10T23:37:17.596Z,0.100000
2019-06-10T23:39:47.864Z,0.100000
2019-06-10T23:42:18.227Z,0.100000
2019-06-10T23:44:48.450Z,0.100000
2019-06-10T23:47:18.824Z,0.100000
2019-06-10T23:49:49.137Z,0.100000
2019-06-10T23:52:19.464Z,0.100000
2019-06-10T23:54:49.868Z,0.100000
2019-06-10T23:57:22.230Z,0.100000
2019-06-10T23:59:53.820Z,0.100000
